Time;durP1;ratioP1;P1;durP2;ratioP2;P2;SDS_P1;SDS_P2;PMS_P1;PMS_P2;Temp;Humidity;BMP_temperature;BMP_pressure;BME280_temperature;BME280_humidity;BME280_pressure;Samples;Min_cycle;Max_cycle;Signal;HPM_P1;HPM_P2
2022/07/08 00:01:27;;;;;;;16.15;2.28;;;;;;;14.41;78.00;99603.47;5124000;28;20020;-69
2022/07/08 00:03:52;;;;;;;17.05;2.03;;;;;;;14.35;77.33;99603.59;5124190;28;20323;-69
2022/07/08 00:06:18;;;;;;;14.60;2.30;;;;;;;14.30;78.31;99606.31;5124117;28;20027;-69
2022/07/08 00:08:44;;;;;;;14.00;2.45;;;;;;;14.25;78.03;99612.59;5123888;28;20054;-69
2022/07/08 00:11:10;;;;;;;16.15;2.38;;;;;;;14.17;78.07;99615.34;5123964;28;20031;-69
2022/07/08 00:13:35;;;;;;;10.45;2.05;;;;;;;14.03;78.89;99616.50;5124135;28;20034;-69
2022/07/08 00:16:01;;;;;;;13.15;2.35;;;;;;;13.99;79.79;99620.13;5123952;28;20331;-69
2022/07/08 00:18:26;;;;;;;11.60;2.25;;;;;;;13.92;79.46;99619.31;5123897;28;20020;-69
2022/07/08 00:20:52;;;;;;;15.85;2.65;;;;;;;13.93;78.82;99625.50;5123624;28;20023;-69
2022/07/08 00:23:17;;;;;;;21.42;3.00;;;;;;;13.78;79.92;99623.09;5123917;28;20039;-69
2022/07/08 00:25:42;;;;;;;13.25;2.17;;;;;;;13.65;80.48;99624.22;5123769;28;20339;-69
2022/07/08 00:28:08;;;;;;;14.70;2.10;;;;;;;13.62;81.19;99626.91;5123770;28;20028;-69
2022/07/08 00:30:33;;;;;;;13.88;2.45;;;;;;;13.52;80.46;99627.94;5123844;28;20027;-69
2022/07/08 00:32:59;;;;;;;12.35;2.63;;;;;;;13.44;80.88;99624.56;5123923;28;20032;-69
2022/07/08 00:35:25;;;;;;;17.33;2.45;;;;;;;13.32;81.41;99627.38;5115445;28;20023;-69
2022/07/08 00:37:50;;;;;;;14.02;2.28;;;;;;;13.30;81.30;99621.22;5123806;28;20027;-69
2022/07/08 00:40:16;;;;;;;13.85;2.28;;;;;;;13.14;82.85;99625.88;5123752;28;20020;-69
2022/07/08 00:42:41;;;;;;;15.10;2.53;;;;;;;13.06;84.34;99626.88;5123812;28;20023;-69
2022/07/08 00:45:07;;;;;;;16.65;2.28;;;;;;;12.88;84.47;99628.81;5123746;28;20026;-69
2022/07/08 00:47:32;;;;;;;23.10;4.13;;;;;;;12.80;85.50;99620.13;5123668;28;20027;-69
2022/07/08 00:49:57;;;;;;;8.63;2.00;;;;;;;12.68;85.60;99625.53;5126527;28;20213;-69
2022/07/08 00:52:24;;;;;;;10.55;2.20;;;;;;;12.47;85.98;99635.50;5127374;28;20027;-69
2022/07/08 00:54:50;;;;;;;13.52;1.85;;;;;;;12.28;86.85;99629.50;5127369;28;20035;-69
2022/07/08 00:57:15;;;;;;;8.90;2.03;;;;;;;12.08;87.01;99626.22;5127423;28;20083;-69
2022/07/08 00:59:42;;;;;;;10.27;2.33;;;;;;;11.91;87.66;99632.53;5127426;28;20031;-69
2022/07/08 01:02:08;;;;;;;15.88;2.20;;;;;;;11.88;87.92;99633.44;5127688;28;20308;-69
2022/07/08 01:04:35;;;;;;;7.15;2.28;;;;;;;11.61;88.29;99627.50;5127197;28;20050;-69
2022/07/08 01:07:00;;;;;;;13.82;2.90;;;;;;;11.49;88.63;99639.00;5127232;28;20023;-69
2022/07/08 01:09:26;;;;;;;15.95;2.72;;;;;;;11.43;89.96;99625.88;5127068;28;20042;-69
2022/07/08 01:11:52;;;;;;;15.43;2.38;;;;;;;11.31;90.23;99633.84;5127098;28;20116;-69
2022/07/08 01:14:18;;;;;;;14.23;2.38;;;;;;;11.22;91.65;99633.00;5127107;28;20030;-69
2022/07/08 01:16:43;;;;;;;9.68;2.05;;;;;;;11.15;91.84;99626.91;5126966;28;20220;-69
2022/07/08 01:19:09;;;;;;;11.75;1.98;;;;;;;11.01;92.13;99634.00;5127090;28;20090;-69
2022/07/08 01:21:34;;;;;;;10.40;2.53;;;;;;;10.89;92.65;99636.72;5126988;28;20019;-69
2022/07/08 01:24:00;;;;;;;15.45;2.60;;;;;;;10.83;92.67;99628.84;5126829;28;20036;-69
2022/07/08 01:26:25;;;;;;;11.45;2.33;;;;;;;10.80;92.96;99634.13;5126708;28;20239;-69
2022/07/08 01:28:51;;;;;;;9.35;2.20;;;;;;;10.74;92.98;99645.56;5126822;28;20023;-69
2022/07/08 01:31:16;;;;;;;8.75;2.35;;;;;;;10.63;92.41;99651.72;5126810;28;20030;-69
2022/07/08 01:33:42;;;;;;;10.85;2.00;;;;;;;10.45;92.93;99649.19;5126645;28;20034;-69
2022/07/08 01:36:08;;;;;;;8.07;2.05;;;;;;;10.43;94.15;99653.56;5126888;28;20023;-69
2022/07/08 01:38:33;;;;;;;12.20;2.78;;;;;;;10.36;94.30;99657.09;5126636;28;20124;-69
2022/07/08 01:40:59;;;;;;;13.55;2.63;;;;;;;10.20;95.49;99650.09;5126326;28;20088;-69
2022/07/08 01:43:25;;;;;;;9.98;2.50;;;;;;;10.18;96.82;99658.00;5108230;28;20097;-69
2022/07/08 01:45:51;;;;;;;24.25;3.35;;;;;;;10.12;97.51;99662.38;5118740;28;20091;-69
2022/07/08 01:48:16;;;;;;;16.85;2.97;;;;;;;10.04;98.48;99658.88;5126760;28;20019;-69
2022/07/08 01:50:42;;;;;;;8.32;2.45;;;;;;;10.02;98.00;99665.88;5126188;28;20094;-69
2022/07/08 01:53:07;;;;;;;12.57;2.70;;;;;;;10.03;99.00;99662.38;5126465;28;20023;-69
2022/07/08 01:55:33;;;;;;;12.48;3.22;;;;;;;10.00;98.86;99662.38;5126681;28;20023;-69
2022/07/08 01:57:58;;;;;;;18.20;4.28;;;;;;;9.91;98.25;99672.91;5126067;28;20027;-69
2022/07/08 02:00:24;;;;;;;14.15;2.90;;;;;;;9.83;97.11;99669.38;5125511;28;20019;-69
2022/07/08 02:02:49;;;;;;;16.88;2.78;;;;;;;9.68;96.45;99672.03;5126190;28;20219;-69
2022/07/08 02:05:15;;;;;;;9.93;2.50;;;;;;;9.68;98.04;99674.66;5125964;28;20023;-69
2022/07/08 02:07:41;;;;;;;15.80;2.65;;;;;;;9.70;98.19;99678.13;5126150;28;20090;-69
2022/07/08 02:10:07;;;;;;;9.52;2.67;;;;;;;9.78;98.40;99679.03;5126143;28;20219;-69
2022/07/08 02:12:33;;;;;;;14.77;2.72;;;;;;;9.93;99.60;99676.38;5126073;28;20219;-68
2022/07/08 02:15:03;;;;;;;11.32;2.75;;;;;;;9.80;97.63;99672.00;5125849;28;20027;-68
2022/07/08 02:17:36;;;;;;;10.10;2.40;;;;;;;9.49;96.02;99663.22;5126140;28;20016;-68
2022/07/08 02:20:11;;;;;;;10.52;2.65;;;;;;;9.45;97.57;99657.97;5118509;28;20020;-68
2022/07/08 02:22:37;;;;;;;9.32;2.10;;;;;;;9.41;97.63;99648.34;5125724;28;20028;-68
2022/07/08 02:25:03;;;;;;;8.90;2.85;;;;;;;9.32;97.77;99658.81;5125872;28;20031;-68
2022/07/08 02:27:28;;;;;;;10.95;2.92;;;;;;;9.15;97.82;99655.28;5125573;28;20039;-68
2022/07/08 02:29:54;;;;;;;6.30;2.33;;;;;;;9.22;98.51;99659.69;5125696;28;20257;-68
2022/07/08 02:32:19;;;;;;;5.30;2.10;;;;;;;9.18;98.36;99660.56;5125385;28;20193;-68
2022/07/08 02:34:45;;;;;;;17.05;2.75;;;;;;;9.16;98.75;99654.41;5125334;28;20035;-68
2022/07/08 02:37:10;;;;;;;13.77;3.28;;;;;;;9.15;98.42;99663.16;5125438;28;20261;-68
2022/07/08 02:39:36;;;;;;;10.50;2.67;;;;;;;9.04;99.33;99663.13;5125412;28;20031;-68
2022/07/08 02:42:02;;;;;;;11.90;2.72;;;;;;;8.97;99.84;99670.97;5125382;28;20015;-68
2022/07/08 02:44:27;;;;;;;17.38;3.00;;;;;;;8.88;99.98;99670.94;5125267;28;20327;-68
2022/07/08 02:46:53;;;;;;;18.08;3.10;;;;;;;8.88;100.00;99663.97;5125263;28;20047;-68
2022/07/08 02:49:18;;;;;;;8.65;2.65;;;;;;;8.82;100.00;99678.81;5125098;28;20030;-68
2022/07/08 02:51:44;;;;;;;10.68;2.55;;;;;;;8.79;100.00;99680.56;5125331;28;20341;-68
2022/07/08 02:54:09;;;;;;;9.07;2.42;;;;;;;8.82;100.00;99683.19;5125122;28;20023;-68
2022/07/08 02:56:35;;;;;;;15.65;4.32;;;;;;;8.73;100.00;99683.16;5125112;28;20028;-68
2022/07/08 02:59:01;;;;;;;13.63;3.35;;;;;;;8.69;100.00;99685.75;5125206;28;20035;-68
2022/07/08 03:01:27;;;;;;;12.18;3.58;;;;;;;8.66;100.00;99691.88;5124960;28;20023;-68
2022/07/08 03:03:52;;;;;;;9.52;3.33;;;;;;;8.73;100.00;99693.66;5124824;28;20200;-68
2022/07/08 03:06:17;;;;;;;13.80;2.58;;;;;;;8.60;100.00;99691.84;5124975;28;20051;-68
2022/07/08 03:08:43;;;;;;;19.38;3.40;;;;;;;8.46;100.00;99696.16;5124827;28;20379;-68
2022/07/08 03:11:09;;;;;;;16.77;3.42;;;;;;;8.56;100.00;99695.31;5124650;28;20052;-68
2022/07/08 03:13:38;;;;;;;9.98;3.03;;;;;;;8.60;100.00;99701.44;5124794;28;20023;-68
2022/07/08 03:16:04;;;;;;;9.98;2.58;;;;;;;8.50;100.00;99695.28;5124704;28;20055;-68
2022/07/08 03:18:36;;;;;;;11.13;2.88;;;;;;;8.53;100.00;99697.94;5124701;28;20023;-68
2022/07/08 03:21:07;;;;;;;5.90;2.92;;;;;;;8.44;99.84;99695.25;5124697;28;20019;-68
2022/07/08 03:23:32;;;;;;;8.60;2.78;;;;;;;8.44;100.00;99705.75;5125024;28;20046;-68
2022/07/08 03:25:58;;;;;;;9.43;2.40;;;;;;;8.26;99.42;99699.50;5124280;28;20330;-68
2022/07/08 03:28:23;;;;;;;12.18;3.08;;;;;;;8.21;100.00;99701.19;5124507;28;20126;-68
2022/07/08 03:30:49;;;;;;;15.52;3.25;;;;;;;8.20;100.00;99709.91;5124547;28;20057;-68
2022/07/08 03:33:14;;;;;;;15.38;3.05;;;;;;;8.24;100.00;99709.09;5124389;28;20098;-68
2022/07/08 03:35:40;;;;;;;14.32;2.83;;;;;;;8.31;100.00;99718.75;5124778;28;20030;-68
2022/07/08 03:38:05;;;;;;;10.13;2.70;;;;;;;8.30;100.00;99728.41;5124438;28;20023;-68
2022/07/08 03:43:15;;;;;;;7.20;3.00;;;;;;;8.11;99.90;99726.47;5124498;28;20398;-68
2022/07/08 03:45:40;;;;;;;16.20;2.75;;;;;;;8.06;99.75;99717.69;5124190;28;20024;-68
2022/07/08 03:48:06;;;;;;;13.20;2.72;;;;;;;7.98;99.73;99724.59;5124368;28;20256;-68
2022/07/08 03:50:31;;;;;;;7.70;2.92;;;;;;;7.94;100.00;99728.06;5124543;28;20027;-68
2022/07/08 03:52:57;;;;;;;13.55;2.95;;;;;;;8.05;100.00;99730.78;5123986;28;20035;-68
2022/07/08 03:55:24;;;;;;;11.00;2.63;;;;;;;8.01;100.00;99729.84;5124247;28;20083;-67
2022/07/08 03:57:50;;;;;;;7.22;2.70;;;;;;;8.01;100.00;99729.84;5124430;28;20046;-68
2022/07/08 04:00:17;;;;;;;9.70;2.95;;;;;;;8.00;100.00;99740.31;5124071;28;20208;-68
2022/07/08 04:02:42;;;;;;;13.35;4.10;;;;;;;8.04;100.00;99740.38;5124420;28;20023;-68
2022/07/08 04:05:08;;;;;;;8.48;3.30;;;;;;;8.05;100.00;99731.66;5123988;28;20046;-68
2022/07/08 04:07:34;;;;;;;11.05;3.30;;;;;;;8.13;100.00;99744.84;5124063;28;20051;-68
2022/07/08 04:09:59;;;;;;;13.95;4.07;;;;;;;8.20;100.00;99731.75;5124141;28;20053;-68
2022/07/08 04:12:25;;;;;;;10.05;2.70;;;;;;;8.28;100.00;99740.59;5123878;28;20020;-68
2022/07/08 04:14:50;;;;;;;8.77;2.85;;;;;;;8.31;100.00;99745.00;5123940;28;20030;-68
2022/07/08 04:17:16;;;;;;;13.40;3.00;;;;;;;8.30;100.00;99743.25;5122999;28;20082;-68
2022/07/08 04:19:41;;;;;;;15.45;2.70;;;;;;;8.24;99.83;99746.72;5123369;28;20194;-68
2022/07/08 04:22:07;;;;;;;11.45;3.08;;;;;;;8.16;98.56;99750.06;5123261;28;20086;-68
2022/07/08 04:24:32;;;;;;;8.30;2.60;;;;;;;8.17;99.23;99755.34;5125520;28;20312;-68
2022/07/08 04:26:57;;;;;;;10.40;3.40;;;;;;;8.26;100.00;99757.22;5126842;28;20051;-68
2022/07/08 04:29:23;;;;;;;17.20;3.60;;;;;;;8.33;100.00;99759.00;5126995;28;20219;-68
2022/07/08 04:31:48;;;;;;;13.82;3.92;;;;;;;8.40;100.00;99761.69;5127061;28;20079;-68
2022/07/08 04:34:13;;;;;;;13.45;3.78;;;;;;;8.56;100.00;99770.53;5127235;28;20069;-68
2022/07/08 04:36:39;;;;;;;8.05;3.17;;;;;;;8.74;100.00;99763.63;5125421;28;20028;-70
2022/07/08 04:39:04;;;;;;;14.80;3.30;;;;;;;9.12;99.77;99765.59;5124064;28;20093;-69
2022/07/08 04:41:30;;;;;;;10.77;3.00;;;;;;;10.82;94.37;99770.19;5128053;28;20043;-69
2022/07/08 04:43:55;;;;;;;7.57;2.55;;;;;;;12.25;86.02;99768.59;5128048;28;20197;-69
2022/07/08 04:46:20;;;;;;;4.68;2.20;;;;;;;13.30;80.85;99780.75;5127978;28;20024;-69
2022/07/08 04:48:46;;;;;;;11.25;2.15;;;;;;;14.29;76.78;99778.47;5127919;28;20049;-69
2022/07/08 04:51:11;;;;;;;10.63;2.38;;;;;;;14.76;71.56;99775.91;5127805;28;20024;-69
2022/07/08 04:53:36;;;;;;;5.55;1.95;;;;;;;15.00;69.80;99773.66;5127886;28;20362;-69
2022/07/08 04:56:02;;;;;;;4.95;1.90;;;;;;;15.53;68.90;99788.56;5128073;28;20024;-69
2022/07/08 04:58:27;;;;;;;6.55;1.98;;;;;;;15.92;67.88;99787.72;5127726;28;20020;-69
2022/07/08 05:00:53;;;;;;;4.45;1.85;;;;;;;16.45;66.86;99797.97;5127752;28;20068;-69
2022/07/08 05:03:18;;;;;;;10.57;2.03;;;;;;;16.84;65.28;99802.28;5127674;28;20043;-69
2022/07/08 05:05:44;;;;;;;9.18;1.50;;;;;;;17.30;64.26;99809.91;5127688;28;20022;-69
2022/07/08 05:08:09;;;;;;;6.25;2.20;;;;;;;17.65;63.27;99808.94;5127675;28;20046;-69
2022/07/08 05:10:34;;;;;;;5.22;1.70;;;;;;;17.69;62.79;99802.63;5127579;28;20223;-69
2022/07/08 05:13:01;;;;;;;12.27;2.53;;;;;;;18.04;61.92;99794.44;5127429;28;20077;-69
2022/07/08 05:15:27;;;;;;;17.60;2.22;;;;;;;18.15;61.57;99802.94;5127708;28;20019;-69
2022/07/08 05:17:53;;;;;;;7.22;2.17;;;;;;;18.19;61.11;99799.28;5127396;28;20261;-69
2022/07/08 05:20:19;;;;;;;6.22;1.83;;;;;;;18.55;60.01;99803.47;5127315;28;20300;-69
2022/07/08 05:22:45;;;;;;;7.20;1.90;;;;;;;19.11;59.88;99805.09;5127344;28;20019;-69
2022/07/08 05:25:11;;;;;;;9.30;2.05;;;;;;;19.42;58.65;99800.41;5127314;28;20219;-69
2022/07/08 05:27:36;;;;;;;7.13;1.60;;;;;;;19.26;57.87;99804.56;5127012;28;20043;-69
2022/07/08 05:30:04;;;;;;;7.95;2.13;;;;;;;19.78;58.38;99807.06;5127369;28;20181;-69
2022/07/08 05:32:29;;;;;;;10.77;2.00;;;;;;;20.09;57.24;99810.28;5126975;28;20060;-69
2022/07/08 05:34:55;;;;;;;6.57;1.70;;;;;;;19.80;57.71;99802.53;5126328;28;20047;-69
2022/07/08 05:37:21;;;;;;;8.15;1.88;;;;;;;20.33;58.02;99809.38;5126586;28;20086;-69
2022/07/08 05:39:46;;;;;;;5.53;1.48;;;;;;;20.77;54.96;99808.44;5127024;28;20356;-69
2022/07/08 05:42:11;;;;;;;6.72;1.70;;;;;;;20.35;55.77;99807.47;5126938;28;20026;-69
2022/07/08 05:44:38;;;;;;;8.02;1.55;;;;;;;21.14;55.35;99815.78;5126875;28;20034;-69
2022/07/08 05:47:04;;;;;;;7.70;1.70;;;;;;;21.66;54.47;99825.06;5126919;28;20345;-69
2022/07/08 05:49:30;;;;;;;8.35;2.47;;;;;;;21.16;55.86;99812.09;5127016;28;20203;-69
2022/07/08 05:51:56;;;;;;;9.93;2.17;;;;;;;22.05;54.82;99813.41;5126682;28;20027;-69
2022/07/08 05:54:21;;;;;;;13.02;2.25;;;;;;;22.70;53.07;99823.69;5126708;28;20393;-69
2022/07/08 05:56:47;;;;;;;7.95;1.92;;;;;;;22.15;54.56;99813.84;5126688;28;20039;-69
2022/07/08 05:59:13;;;;;;;9.43;1.95;;;;;;;22.66;54.28;99817.56;5126833;28;20023;-69
2022/07/08 06:01:38;;;;;;;10.65;2.13;;;;;;;22.71;55.30;99814.66;5126585;28;20015;-69
2022/07/08 06:04:04;;;;;;;10.23;2.15;;;;;;;23.24;52.01;99820.91;5126492;28;20090;-69
2022/07/08 06:06:29;;;;;;;7.13;1.90;;;;;;;23.49;51.43;99815.13;5126465;28;20024;-70
2022/07/08 06:08:55;;;;;;;10.50;2.50;;;;;;;24.50;48.45;99819.34;5126362;28;20026;-70
2022/07/08 06:11:20;;;;;;;17.08;2.25;;;;;;;23.92;49.33;99810.03;5126248;28;20090;-70
2022/07/08 06:13:46;;;;;;;14.38;2.45;;;;;;;23.59;48.14;99806.50;5126552;28;20050;-70
2022/07/08 06:16:11;;;;;;;11.70;1.95;;;;;;;23.93;49.42;99814.47;5126276;28;20044;-70
2022/07/08 06:18:37;;;;;;;10.95;2.72;;;;;;;24.97;48.23;99822.84;5126302;28;20028;-70
2022/07/08 06:21:02;;;;;;;11.73;2.22;;;;;;;24.98;47.96;99819.22;5126135;28;20068;-70
2022/07/08 06:23:28;;;;;;;10.73;2.17;;;;;;;24.72;45.02;99811.78;5126292;28;20016;-70
2022/07/08 06:25:53;;;;;;;11.30;2.38;;;;;;;25.12;45.78;99823.78;5126154;28;20036;-70
2022/07/08 06:28:19;;;;;;;13.90;2.55;;;;;;;25.36;45.31;99822.34;5125915;28;20090;-70
2022/07/08 06:30:44;;;;;;;9.15;2.25;;;;;;;24.65;44.54;99815.78;5125850;28;20026;-70
2022/07/08 06:33:09;;;;;;;11.77;2.33;;;;;;;24.06;46.90;99812.00;5125996;28;20319;-69
2022/07/08 06:35:35;;;;;;;11.52;2.60;;;;;;;25.71;45.17;99823.75;5125935;28;20087;-69
2022/07/08 06:38:01;;;;;;;12.45;2.70;;;;;;;25.85;44.00;99825.59;5125803;28;20019;-70
2022/07/08 06:40:26;;;;;;;7.13;2.08;;;;;;;25.21;44.31;99818.69;5125729;28;20023;-70
2022/07/08 06:42:52;;;;;;;10.70;2.10;;;;;;;24.68;45.45;99812.06;5125752;28;20056;-70
2022/07/08 06:45:17;;;;;;;8.07;2.60;;;;;;;25.14;44.29;99817.34;5125911;28;20027;-70
2022/07/08 06:47:43;;;;;;;11.45;2.60;;;;;;;24.89;44.92;99817.06;5125618;28;20035;-70
2022/07/08 06:50:09;;;;;;;9.13;1.90;;;;;;;25.57;43.93;99825.56;5125623;28;20323;-70
2022/07/08 06:52:35;;;;;;;12.02;2.70;;;;;;;25.54;42.54;99814.94;5125445;28;20024;-70
2022/07/08 06:55:00;;;;;;;10.90;2.40;;;;;;;25.63;42.75;99815.28;5125509;28;20028;-70
2022/07/08 06:57:26;;;;;;;9.90;1.98;;;;;;;26.15;43.48;99820.97;5125371;28;20038;-70
2022/07/08 06:59:52;;;;;;;9.60;2.35;;;;;;;24.55;45.64;99811.00;5125444;28;20027;-70
2022/07/08 07:02:18;;;;;;;8.93;2.30;;;;;;;25.97;43.52;99820.31;5125372;28;20015;-70
2022/07/08 07:04:43;;;;;;;12.05;2.70;;;;;;;26.15;41.02;99818.28;5125337;28;20248;-70
2022/07/08 07:07:09;;;;;;;12.07;1.95;;;;;;;26.90;41.27;99830.34;5125298;28;20024;-70
2022/07/08 07:09:35;;;;;;;10.43;2.33;;;;;;;24.49;42.60;99809.50;5125262;28;20019;-70
2022/07/08 07:12:01;;;;;;;16.10;2.88;;;;;;;25.42;42.11;99827.34;5125381;28;20091;-70
2022/07/08 07:14:27;;;;;;;8.50;2.22;;;;;;;26.03;41.55;99830.72;5125176;28;20042;-70
2022/07/08 07:16:52;;;;;;;11.55;2.53;;;;;;;27.00;41.20;99846.84;5125137;28;20215;-70
2022/07/08 07:19:18;;;;;;;10.45;1.92;;;;;;;26.37;41.11;99830.31;5125082;28;20038;-70
2022/07/08 07:21:43;;;;;;;7.10;2.13;;;;;;;25.49;43.11;99822.44;5125024;28;20238;-70
2022/07/08 07:24:09;;;;;;;7.35;2.20;;;;;;;24.87;44.07;99824.34;5125045;28;20331;-70
2022/07/08 07:26:34;;;;;;;11.00;1.60;;;;;;;22.58;46.53;99821.59;5124832;28;20343;-70
2022/07/08 07:29:00;;;;;;;9.25;1.80;;;;;;;23.83;44.73;99837.44;5125082;28;20086;-70
2022/07/08 07:31:25;;;;;;;10.25;2.22;;;;;;;25.39;43.30;99846.41;5124834;28;20361;-70
2022/07/08 07:33:50;;;;;;;6.07;1.80;;;;;;;26.58;41.26;99845.09;5124861;28;20319;-70
2022/07/08 07:36:16;;;;;;;9.80;2.17;;;;;;;26.04;39.90;99824.34;5124775;28;20035;-70
2022/07/08 07:38:41;;;;;;;17.23;2.53;;;;;;;26.63;39.56;99832.19;5124811;28;20019;-70
2022/07/08 07:41:07;;;;;;;8.23;1.90;;;;;;;25.04;40.55;99818.84;5124796;28;20083;-70
2022/07/08 07:43:32;;;;;;;10.43;2.10;;;;;;;23.91;42.34;99819.06;5124686;28;20080;-70
2022/07/08 07:45:57;;;;;;;8.32;1.80;;;;;;;24.59;42.01;99829.59;5124693;28;20294;-70
2022/07/08 07:48:23;;;;;;;8.38;2.05;;;;;;;23.95;41.43;99809.91;5124846;28;20043;-70
2022/07/08 07:50:48;;;;;;;7.05;1.75;;;;;;;25.92;41.01;99837.72;5124600;28;20072;-70
2022/07/08 07:53:14;;;;;;;7.22;2.03;;;;;;;25.61;41.56;99829.78;5124625;28;20031;-70
2022/07/08 07:55:39;;;;;;;10.57;1.90;;;;;;;26.59;40.49;99824.38;5124559;28;20042;-70
2022/07/08 07:58:05;;;;;;;12.85;2.30;;;;;;;28.14;38.13;99827.13;5124020;28;20278;-70
2022/07/08 08:00:30;;;;;;;8.18;2.00;;;;;;;28.05;36.72;99820.53;5124588;28;20207;-70
2022/07/08 08:02:56;;;;;;;10.20;2.00;;;;;;;28.48;36.92;99816.47;5124446;28;20212;-70
2022/07/08 08:05:21;;;;;;;10.50;1.88;;;;;;;28.19;36.29;99817.69;5124414;28;20027;-70
2022/07/08 08:07:47;;;;;;;9.02;2.10;;;;;;;27.24;37.68;99815.50;5124462;28;20322;-70
2022/07/08 08:10:13;;;;;;;10.50;2.22;;;;;;;26.72;36.79;99810.00;5124397;28;20079;-70
2022/07/08 08:12:39;;;;;;;5.65;1.70;;;;;;;28.55;37.36;99823.16;5124402;28;20023;-70
2022/07/08 08:15:05;;;;;;;5.85;1.45;;;;;;;29.28;36.09;99832.06;5124632;28;20064;-70
2022/07/08 08:17:37;;;;;;;9.88;2.25;;;;;;;26.81;36.84;99803.97;5124578;28;20069;-70
2022/07/08 08:20:05;;;;;;;9.82;2.25;;;;;;;26.08;39.00;99798.03;5124602;28;20076;-70
2022/07/08 08:22:31;;;;;;;10.95;1.90;;;;;;;26.01;39.59;99807.50;5124258;28;20011;-70
2022/07/08 08:24:56;;;;;;;4.13;1.40;;;;;;;27.98;37.80;99827.38;5124289;28;20023;-70
2022/07/08 08:27:22;;;;;;;6.60;1.70;;;;;;;27.80;36.60;99828.63;5124022;28;20040;-70
2022/07/08 08:29:47;;;;;;;10.00;1.63;;;;;;;27.25;36.37;99820.75;5124520;28;20016;-70
2022/07/08 08:32:12;;;;;;;9.23;1.52;;;;;;;28.56;34.45;99824.00;5124238;28;20027;-70
2022/07/08 08:34:38;;;;;;;5.82;1.58;;;;;;;29.81;34.43;99827.91;5124153;28;20047;-70
2022/07/08 08:37:03;;;;;;;13.23;1.90;;;;;;;29.04;34.33;99815.81;5124212;28;20019;-70
2022/07/08 08:39:29;;;;;;;12.13;1.90;;;;;;;29.59;34.95;99830.56;5124072;28;20016;-70
2022/07/08 08:41:54;;;;;;;7.57;1.55;;;;;;;27.82;37.03;99818.56;5124129;28;20026;-70
2022/07/08 08:44:19;;;;;;;8.77;1.70;;;;;;;28.24;36.87;99823.63;5124080;28;20027;-70
2022/07/08 08:46:46;;;;;;;8.70;2.00;;;;;;;28.27;35.72;99818.00;5124101;28;20073;-70
2022/07/08 08:49:15;;;;;;;6.50;1.55;;;;;;;27.90;34.95;99812.66;5124334;28;20327;-70
2022/07/08 08:51:40;;;;;;;5.18;1.70;;;;;;;28.45;36.41;99826.66;5124020;28;20019;-70
2022/07/08 08:54:06;;;;;;;6.68;1.98;;;;;;;28.58;38.08;99817.53;5124008;28;20070;-70
2022/07/08 08:56:32;;;;;;;9.07;1.85;;;;;;;28.33;34.82;99805.84;5124015;28;20050;-70
2022/07/08 08:58:59;;;;;;;9.77;1.73;;;;;;;28.23;36.94;99811.09;5123974;28;20086;-70
2022/07/08 09:01:24;;;;;;;7.88;2.00;;;;;;;29.27;35.34;99822.22;5123956;28;20031;-70
2022/07/08 09:03:50;;;;;;;10.18;1.67;;;;;;;28.98;35.30;99820.81;5123965;28;20091;-70
2022/07/08 09:06:15;;;;;;;7.90;1.70;;;;;;;28.84;37.19;99824.56;5123959;28;20339;-70
2022/07/08 09:08:41;;;;;;;6.88;1.75;;;;;;;28.94;34.70;99814.75;5123908;28;20090;-70
2022/07/08 09:11:06;;;;;;;8.48;1.85;;;;;;;28.24;35.92;99810.09;5126621;28;20026;-70
2022/07/08 09:13:32;;;;;;;7.88;1.98;;;;;;;27.78;34.88;99803.53;5127440;28;20083;-70
2022/07/08 09:15:59;;;;;;;8.45;1.90;;;;;;;27.21;37.30;99813.81;5127467;28;20019;-70
2022/07/08 09:18:30;;;;;;;4.80;1.35;;;;;;;29.38;35.13;99824.94;5127450;28;20043;-70
2022/07/08 09:20:58;;;;;;;7.55;1.55;;;;;;;29.03;35.99;99814.09;5127447;28;20034;-70
2022/07/08 09:23:45;;;;;;;10.27;2.28;;;;;;;27.58;35.15;99782.41;5127268;28;20029;-70
2022/07/08 09:26:10;;;;;;;7.53;1.95;;;;;;;28.35;36.42;99799.34;5126609;28;20050;-70
2022/07/08 09:28:39;;;;;;;7.85;2.10;;;;;;;28.61;34.60;99794.75;5127152;28;20219;-70
2022/07/08 09:31:12;;;;;;;6.28;1.73;;;;;;;28.54;35.55;99805.16;5127071;28;20029;-70
2022/07/08 09:33:38;;;;;;;8.45;2.13;;;;;;;28.92;36.01;99800.44;5127387;28;20094;-70
2022/07/08 09:36:06;;;;;;;10.35;1.98;;;;;;;29.18;33.93;99796.66;5127377;28;20223;-70
2022/07/08 09:38:35;;;;;;;8.32;1.92;;;;;;;29.38;34.88;99805.97;5126988;28;20015;-70
2022/07/08 09:41:20;;;;;;;7.20;2.00;;;;;;;29.52;34.02;99813.03;5126932;28;20015;-70
2022/07/08 09:43:48;;;;;;;8.82;2.40;;;;;;;28.19;36.75;99809.56;5127030;28;20051;-70
2022/07/08 09:46:14;;;;;;;6.13;1.80;;;;;;;28.71;37.65;99812.91;5126811;28;20019;-70
2022/07/08 09:48:39;;;;;;;7.80;1.30;;;;;;;28.96;35.11;99807.38;5126793;28;20062;-70
2022/07/08 09:51:07;;;;;;;5.53;1.63;;;;;;;28.36;36.03;99800.22;5126747;28;20019;-70
2022/07/08 09:53:34;;;;;;;8.52;2.22;;;;;;;28.11;35.78;99801.13;5126711;28;20027;-70
2022/07/08 09:56:00;;;;;;;7.45;1.70;;;;;;;27.92;36.73;99806.16;5126723;28;20023;-70
2022/07/08 09:58:27;;;;;;;7.70;1.95;;;;;;;28.06;36.40;99808.72;5126611;28;20019;-70
2022/07/08 10:00:54;;;;;;;7.18;1.60;;;;;;;27.72;35.69;99812.06;5126614;28;20027;-70
2022/07/08 10:03:22;;;;;;;7.57;1.90;;;;;;;26.75;36.83;99798.09;5126563;28;20053;-70
2022/07/08 10:05:48;;;;;;;5.90;1.88;;;;;;;28.04;35.35;99810.69;5126497;28;20024;-70
2022/07/08 10:08:15;;;;;;;7.47;1.73;;;;;;;27.97;36.33;99803.94;5126427;28;20026;-70
2022/07/08 10:10:45;;;;;;;7.68;1.92;;;;;;;27.53;36.39;99791.81;5126663;28;20087;-70
2022/07/08 10:13:11;;;;;;;6.45;1.30;;;;;;;28.01;36.56;99805.50;5126322;28;20020;-70
2022/07/08 10:15:38;;;;;;;7.82;1.63;;;;;;;28.74;36.50;99804.56;5126341;28;20077;-70
2022/07/08 10:18:25;;;;;;;7.25;1.65;;;;;;;28.35;36.02;99799.34;5126227;28;20023;-70
2022/07/08 10:20:55;;;;;;;6.57;1.40;;;;;;;26.72;37.41;99792.91;5126085;28;20031;-70
2022/07/08 10:23:45;;;;;;;7.70;1.63;;;;;;;28.18;36.71;99813.25;5125708;28;20027;-70
2022/07/08 10:26:15;;;;;;;9.02;1.77;;;;;;;27.16;36.30;99797.06;5125936;28;20044;-70
2022/07/08 10:28:44;;;;;;;5.82;1.63;;;;;;;27.89;36.42;99795.53;5126043;28;20024;-70
2022/07/08 10:31:24;;;;;;;10.98;1.88;;;;;;;26.48;37.94;99783.72;5125885;28;20046;-70
2022/07/08 10:33:53;;;;;;;3.88;1.40;;;;;;;27.04;37.72;99800.59;5125911;28;20061;-70
2022/07/08 10:36:22;;;;;;;5.55;1.50;;;;;;;27.33;37.47;99795.06;5125875;28;20196;-70
2022/07/08 10:38:49;;;;;;;5.90;1.20;;;;;;;27.86;37.60;99805.69;5125757;28;20100;-70
2022/07/08 10:41:19;;;;;;;7.68;1.60;;;;;;;27.56;38.59;99795.19;5126054;28;20015;-70
2022/07/08 10:43:52;;;;;;;5.50;1.52;;;;;;;27.17;38.85;99795.19;5125790;28;20020;-70
2022/07/08 10:46:19;;;;;;;11.60;2.13;;;;;;;27.31;36.87;99786.19;5125821;28;20223;-70
2022/07/08 10:48:44;;;;;;;4.00;1.30;;;;;;;27.31;36.57;99787.06;5125324;28;20033;-70
2022/07/08 10:51:19;;;;;;;6.43;1.60;;;;;;;27.75;37.48;99801.03;5119914;28;20031;-70
2022/07/08 10:53:51;;;;;;;12.68;1.83;;;;;;;28.10;37.01;99787.72;5112346;28;20319;-70
2022/07/08 10:56:50;;;;;;;5.50;1.50;;;;;;;27.52;37.82;99790.94;5125095;28;20068;-70
2022/07/08 10:59:20;;;;;;;6.78;1.60;;;;;;;26.87;38.36;99784.66;5120667;28;20039;-71
2022/07/08 11:02:03;;;;;;;7.90;1.52;;;;;;;27.10;38.36;99785.78;5124569;28;20021;-71
2022/07/08 11:04:34;;;;;;;5.93;1.58;;;;;;;26.44;39.41;99782.16;5124919;28;20033;-71
2022/07/08 11:07:22;;;;;;;7.40;1.48;;;;;;;26.06;38.51;99781.06;5124709;28;20020;-71
2022/07/08 11:09:57;;;;;;;10.35;2.13;;;;;;;26.17;38.92;99779.44;5121691;28;20100;-71
2022/07/08 11:12:25;;;;;;;5.78;1.73;;;;;;;26.57;39.74;99781.25;5124883;28;20327;-71
2022/07/08 11:14:53;;;;;;;5.55;1.45;;;;;;;27.02;38.29;99780.88;5124869;28;20027;-71
2022/07/08 11:17:27;;;;;;;13.07;1.92;;;;;;;26.85;39.12;99777.59;5124531;28;20023;-71
2022/07/08 11:19:53;;;;;;;7.00;1.63;;;;;;;27.18;37.72;99780.72;5124908;28;20063;-71
2022/07/08 11:22:21;;;;;;;5.75;1.38;;;;;;;27.31;39.22;99778.94;5124651;28;20028;-71
2022/07/08 11:24:47;;;;;;;7.15;1.63;;;;;;;27.49;38.18;99783.06;5124778;28;20051;-71
2022/07/08 11:27:13;;;;;;;8.80;1.50;;;;;;;26.25;40.16;99770.81;5122621;28;20040;-71
2022/07/08 11:29:46;;;;;;;2.85;1.45;;;;;;;26.38;40.39;99771.75;5124234;28;20030;-71